Terminal Aerodrome Forecast
Issued by NWS Missoula, MT

Home | Current Version | Previous Version | Text Only | Print | Product List | Glossary On
Versions: 1 2 3 4 5 6 7 8 9 10 11 12 13 14 15 16 17 18 19 20
925
FTUS45 KMSO 210520
TAFGPI
TAF
KGPI 210520Z 2106/2206 VRB04KT P6SM VCSH BKN040 OVC050
     FM211200 VRB03KT 5SM BR BKN030
     FM212000 15004KT P6SM OVC100=

USA.gov is the U.S. government's official web portal to all federal, state and local government web resources and services.